sensor_id;sensor_type;location;lat;lon;timestamp;temperature;humidity
10447;DHT22;5271;44.422;26.092;2023-01-23T00:01:13;2.50;99.90
10447;DHT22;5271;44.422;26.092;2023-01-23T00:03:40;2.50;99.90
10447;DHT22;5271;44.422;26.092;2023-01-23T00:06:11;2.50;99.90
10447;DHT22;5271;44.422;26.092;2023-01-23T00:08:39;2.50;99.90
10447;DHT22;5271;44.422;26.092;2023-01-23T00:11:08;2.50;99.90
10447;DHT22;5271;44.422;26.092;2023-01-23T00:13:36;2.50;99.90
10447;DHT22;5271;44.422;26.092;2023-01-23T00:16:04;2.50;99.90
10447;DHT22;5271;44.422;26.092;2023-01-23T00:18:31;2.50;99.90
10447;DHT22;5271;44.422;26.092;2023-01-23T00:20:58;2.50;99.90
10447;DHT22;5271;44.422;26.092;2023-01-23T00:23:26;2.40;99.90
10447;DHT22;5271;44.422;26.092;2023-01-23T00:25:53;2.40;99.90
10447;DHT22;5271;44.422;26.092;2023-01-23T00:28:19;2.40;99.90
10447;DHT22;5271;44.422;26.092;2023-01-23T00:30:46;2.40;99.90
10447;DHT22;5271;44.422;26.092;2023-01-23T00:33:13;2.30;99.90
10447;DHT22;5271;44.422;26.092;2023-01-23T00:35:40;2.40;99.90
10447;DHT22;5271;44.422;26.092;2023-01-23T00:38:07;2.50;99.90
10447;DHT22;5271;44.422;26.092;2023-01-23T00:40:35;2.40;99.90
10447;DHT22;5271;44.422;26.092;2023-01-23T00:43:02;2.50;99.90
10447;DHT22;5271;44.422;26.092;2023-01-23T00:45:29;2.40;99.90
10447;DHT22;5271;44.422;26.092;2023-01-23T00:47:55;2.50;99.90
10447;DHT22;5271;44.422;26.092;2023-01-23T00:50:22;2.50;99.90
10447;DHT22;5271;44.422;26.092;2023-01-23T00:52:49;2.50;99.90
10447;DHT22;5271;44.422;26.092;2023-01-23T00:55:16;2.50;99.90
10447;DHT22;5271;44.422;26.092;2023-01-23T00:57:44;2.50;99.90
10447;DHT22;5271;44.422;26.092;2023-01-23T01:00:12;2.50;99.90
10447;DHT22;5271;44.422;26.092;2023-01-23T01:02:39;2.50;99.90
10447;DHT22;5271;44.422;26.092;2023-01-23T01:05:06;2.50;99.90
10447;DHT22;5271;44.422;26.092;2023-01-23T01:07:33;2.50;99.90
10447;DHT22;5271;44.422;26.092;2023-01-23T01:10:00;2.50;99.90
10447;DHT22;5271;44.422;26.092;2023-01-23T01:12:27;2.50;99.90
10447;DHT22;5271;44.422;26.092;2023-01-23T01:14:55;2.60;99.90
10447;DHT22;5271;44.422;26.092;2023-01-23T01:17:22;2.60;99.90
10447;DHT22;5271;44.422;26.092;2023-01-23T01:19:49;2.60;99.90
10447;DHT22;5271;44.422;26.092;2023-01-23T01:22:15;2.60;99.90
10447;DHT22;5271;44.422;26.092;2023-01-23T01:24:42;2.60;99.90
10447;DHT22;5271;44.422;26.092;2023-01-23T01:27:09;2.50;99.90
10447;DHT22;5271;44.422;26.092;2023-01-23T01:29:36;2.50;99.90
10447;DHT22;5271;44.422;26.092;2023-01-23T01:32:04;2.50;99.90
10447;DHT22;5271;44.422;26.092;2023-01-23T01:34:31;2.50;99.90
10447;DHT22;5271;44.422;26.092;2023-01-23T01:36:58;2.50;99.90
10447;DHT22;5271;44.422;26.092;2023-01-23T01:39:25;2.50;99.90
10447;DHT22;5271;44.422;26.092;2023-01-23T01:41:52;2.50;99.90
10447;DHT22;5271;44.422;26.092;2023-01-23T01:44:20;2.50;99.90
10447;DHT22;5271;44.422;26.092;2023-01-23T01:46:48;2.50;99.90
10447;DHT22;5271;44.422;26.092;2023-01-23T01:49:19;2.50;99.90
10447;DHT22;5271;44.422;26.092;2023-01-23T01:51:49;2.50;99.90
10447;DHT22;5271;44.422;26.092;2023-01-23T01:54:23;2.40;99.90
10447;DHT22;5271;44.422;26.092;2023-01-23T01:56:54;2.40;99.90
10447;DHT22;5271;44.422;26.092;2023-01-23T01:59:25;2.40;99.90
10447;DHT22;5271;44.422;26.092;2023-01-23T02:01:59;2.50;99.90
10447;DHT22;5271;44.422;26.092;2023-01-23T02:04:31;2.50;99.90
10447;DHT22;5271;44.422;26.092;2023-01-23T02:07:04;2.50;99.90
10447;DHT22;5271;44.422;26.092;2023-01-23T02:09:31;2.50;99.90
10447;DHT22;5271;44.422;26.092;2023-01-23T02:11:59;2.50;99.90
10447;DHT22;5271;44.422;26.092;2023-01-23T02:14:27;2.50;99.90
10447;DHT22;5271;44.422;26.092;2023-01-23T02:16:54;2.50;99.90
10447;DHT22;5271;44.422;26.092;2023-01-23T02:19:38;2.50;99.90
10447;DHT22;5271;44.422;26.092;2023-01-23T02:22:12;2.40;99.90
10447;DHT22;5271;44.422;26.092;2023-01-23T02:24:49;2.50;99.90
10447;DHT22;5271;44.422;26.092;2023-01-23T02:27:20;2.50;99.90
10447;DHT22;5271;44.422;26.092;2023-01-23T02:29:47;2.40;99.90
10447;DHT22;5271;44.422;26.092;2023-01-23T02:32:16;2.40;99.90
10447;DHT22;5271;44.422;26.092;2023-01-23T02:34:44;2.40;99.90
10447;DHT22;5271;44.422;26.092;2023-01-23T02:37:11;2.40;99.90
10447;DHT22;5271;44.422;26.092;2023-01-23T02:39:39;2.40;99.90
10447;DHT22;5271;44.422;26.092;2023-01-23T02:42:05;2.50;99.90
10447;DHT22;5271;44.422;26.092;2023-01-23T02:44:34;2.50;99.90
10447;DHT22;5271;44.422;26.092;2023-01-23T02:47:03;2.60;99.90
10447;DHT22;5271;44.422;26.092;2023-01-23T02:49:32;2.60;99.90
10447;DHT22;5271;44.422;26.092;2023-01-23T02:51:59;2.60;99.90
10447;DHT22;5271;44.422;26.092;2023-01-23T02:54:26;2.60;99.90
10447;DHT22;5271;44.422;26.092;2023-01-23T02:56:53;2.60;99.90
10447;DHT22;5271;44.422;26.092;2023-01-23T02:59:21;2.70;99.90
10447;DHT22;5271;44.422;26.092;2023-01-23T03:02:07;2.60;99.90
10447;DHT22;5271;44.422;26.092;2023-01-23T03:04:34;2.60;99.90
10447;DHT22;5271;44.422;26.092;2023-01-23T03:07:01;2.60;99.90
10447;DHT22;5271;44.422;26.092;2023-01-23T03:09:28;2.50;99.90
10447;DHT22;5271;44.422;26.092;2023-01-23T03:11:55;2.60;99.90
10447;DHT22;5271;44.422;26.092;2023-01-23T03:14:22;2.60;99.90
10447;DHT22;5271;44.422;26.092;2023-01-23T03:16:49;2.60;99.90
10447;DHT22;5271;44.422;26.092;2023-01-23T03:19:21;2.60;99.90
10447;DHT22;5271;44.422;26.092;2023-01-23T03:21:49;2.60;99.90
10447;DHT22;5271;44.422;26.092;2023-01-23T03:24:17;2.50;99.90
10447;DHT22;5271;44.422;26.092;2023-01-23T03:26:46;2.60;99.90
10447;DHT22;5271;44.422;26.092;2023-01-23T03:29:14;2.50;99.90
10447;DHT22;5271;44.422;26.092;2023-01-23T03:31:59;2.50;99.90
10447;DHT22;5271;44.422;26.092;2023-01-23T03:34:28;2.50;99.90
10447;DHT22;5271;44.422;26.092;2023-01-23T03:36:56;2.50;99.90
10447;DHT22;5271;44.422;26.092;2023-01-23T03:39:23;2.50;99.90
10447;DHT22;5271;44.422;26.092;2023-01-23T03:42:07;2.50;99.90
10447;DHT22;5271;44.422;26.092;2023-01-23T03:44:34;2.50;99.90
10447;DHT22;5271;44.422;26.092;2023-01-23T03:47:01;2.50;99.90
10447;DHT22;5271;44.422;26.092;2023-01-23T03:49:29;2.50;99.90
10447;DHT22;5271;44.422;26.092;2023-01-23T03:51:57;2.50;99.90
10447;DHT22;5271;44.422;26.092;2023-01-23T03:54:24;2.50;99.90
10447;DHT22;5271;44.422;26.092;2023-01-23T03:56:51;2.50;99.90
10447;DHT22;5271;44.422;26.092;2023-01-23T03:59:18;2.50;99.90
10447;DHT22;5271;44.422;26.092;2023-01-23T04:01:44;2.50;99.90
10447;DHT22;5271;44.422;26.092;2023-01-23T04:04:12;2.50;99.90
10447;DHT22;5271;44.422;26.092;2023-01-23T04:06:40;2.60;99.90
10447;DHT22;5271;44.422;26.092;2023-01-23T04:09:07;2.60;99.90
10447;DHT22;5271;44.422;26.092;2023-01-23T04:11:34;2.70;99.90
10447;DHT22;5271;44.422;26.092;2023-01-23T04:14:01;2.60;99.90
10447;DHT22;5271;44.422;26.092;2023-01-23T04:16:28;2.60;99.90
10447;DHT22;5271;44.422;26.092;2023-01-23T04:18:55;2.60;99.90
10447;DHT22;5271;44.422;26.092;2023-01-23T04:21:22;2.60;99.90
10447;DHT22;5271;44.422;26.092;2023-01-23T04:23:50;2.60;99.90
10447;DHT22;5271;44.422;26.092;2023-01-23T04:26:17;2.60;99.90
10447;DHT22;5271;44.422;26.092;2023-01-23T04:28:43;2.60;99.90
10447;DHT22;5271;44.422;26.092;2023-01-23T04:31:10;2.60;99.90
10447;DHT22;5271;44.422;26.092;2023-01-23T04:33:37;2.60;99.90
10447;DHT22;5271;44.422;26.092;2023-01-23T04:36:05;2.60;99.90
10447;DHT22;5271;44.422;26.092;2023-01-23T04:38:33;2.50;99.90
10447;DHT22;5271;44.422;26.092;2023-01-23T04:41:02;2.50;99.90
10447;DHT22;5271;44.422;26.092;2023-01-23T04:43:29;2.50;99.90
10447;DHT22;5271;44.422;26.092;2023-01-23T04:45:56;2.50;99.90
10447;DHT22;5271;44.422;26.092;2023-01-23T04:48:24;2.50;99.90
10447;DHT22;5271;44.422;26.092;2023-01-23T04:50:51;2.50;99.90
10447;DHT22;5271;44.422;26.092;2023-01-23T04:53:18;2.40;99.90
10447;DHT22;5271;44.422;26.092;2023-01-23T04:55:46;2.50;99.90
10447;DHT22;5271;44.422;26.092;2023-01-23T04:58:15;2.50;99.90
10447;DHT22;5271;44.422;26.092;2023-01-23T05:00:42;2.50;99.90
10447;DHT22;5271;44.422;26.092;2023-01-23T05:03:09;2.40;99.90
10447;DHT22;5271;44.422;26.092;2023-01-23T05:05:36;2.40;99.90
10447;DHT22;5271;44.422;26.092;2023-01-23T05:08:03;2.40;99.90
10447;DHT22;5271;44.422;26.092;2023-01-23T05:10:30;2.50;99.90
10447;DHT22;5271;44.422;26.092;2023-01-23T05:12:57;2.50;99.90
10447;DHT22;5271;44.422;26.092;2023-01-23T05:15:25;2.40;99.90
10447;DHT22;5271;44.422;26.092;2023-01-23T05:17:52;2.40;99.90
10447;DHT22;5271;44.422;26.092;2023-01-23T05:20:19;2.40;99.90
10447;DHT22;5271;44.422;26.092;2023-01-23T05:22:48;2.40;99.90
10447;DHT22;5271;44.422;26.092;2023-01-23T05:25:19;2.40;99.90
10447;DHT22;5271;44.422;26.092;2023-01-23T05:27:47;2.50;99.90
10447;DHT22;5271;44.422;26.092;2023-01-23T05:30:14;2.40;99.90
10447;DHT22;5271;44.422;26.092;2023-01-23T05:32:42;2.50;99.90
10447;DHT22;5271;44.422;26.092;2023-01-23T05:35:09;2.50;99.90
10447;DHT22;5271;44.422;26.092;2023-01-23T05:37:36;2.50;99.90
10447;DHT22;5271;44.422;26.092;2023-01-23T05:40:04;2.50;99.90
10447;DHT22;5271;44.422;26.092;2023-01-23T05:42:32;2.50;99.90
10447;DHT22;5271;44.422;26.092;2023-01-23T05:44:59;2.50;99.90
10447;DHT22;5271;44.422;26.092;2023-01-23T05:47:26;2.50;99.90
10447;DHT22;5271;44.422;26.092;2023-01-23T05:49:54;2.50;99.90
10447;DHT22;5271;44.422;26.092;2023-01-23T05:52:21;2.60;99.90
10447;DHT22;5271;44.422;26.092;2023-01-23T05:54:48;2.60;99.90
10447;DHT22;5271;44.422;26.092;2023-01-23T05:57:15;2.60;99.90
10447;DHT22;5271;44.422;26.092;2023-01-23T05:59:42;2.60;99.90
10447;DHT22;5271;44.422;26.092;2023-01-23T06:02:10;2.50;99.90
10447;DHT22;5271;44.422;26.092;2023-01-23T06:04:36;2.50;99.90
10447;DHT22;5271;44.422;26.092;2023-01-23T06:07:07;2.50;99.90
10447;DHT22;5271;44.422;26.092;2023-01-23T06:09:35;2.50;99.90
10447;DHT22;5271;44.422;26.092;2023-01-23T06:12:02;2.50;99.90
10447;DHT22;5271;44.422;26.092;2023-01-23T06:14:29;2.40;99.90
10447;DHT22;5271;44.422;26.092;2023-01-23T06:16:56;2.40;99.90
10447;DHT22;5271;44.422;26.092;2023-01-23T06:19:22;2.40;99.90
10447;DHT22;5271;44.422;26.092;2023-01-23T06:21:49;2.50;99.90
10447;DHT22;5271;44.422;26.092;2023-01-23T06:24:18;2.40;99.90
10447;DHT22;5271;44.422;26.092;2023-01-23T06:26:45;2.40;99.90
10447;DHT22;5271;44.422;26.092;2023-01-23T06:29:11;2.50;99.90
10447;DHT22;5271;44.422;26.092;2023-01-23T06:31:38;2.60;99.90
10447;DHT22;5271;44.422;26.092;2023-01-23T06:34:05;2.60;99.90
10447;DHT22;5271;44.422;26.092;2023-01-23T06:36:33;2.60;99.90
10447;DHT22;5271;44.422;26.092;2023-01-23T06:39:00;2.60;99.90
10447;DHT22;5271;44.422;26.092;2023-01-23T06:41:28;2.60;99.90
10447;DHT22;5271;44.422;26.092;2023-01-23T06:43:55;2.60;99.90
10447;DHT22;5271;44.422;26.092;2023-01-23T06:46:22;2.60;99.90
10447;DHT22;5271;44.422;26.092;2023-01-23T06:48:51;2.50;99.90
10447;DHT22;5271;44.422;26.092;2023-01-23T06:51:18;2.60;99.90
10447;DHT22;5271;44.422;26.092;2023-01-23T06:53:45;2.60;99.90
10447;DHT22;5271;44.422;26.092;2023-01-23T06:56:12;2.60;99.90
10447;DHT22;5271;44.422;26.092;2023-01-23T06:58:43;2.60;99.90
10447;DHT22;5271;44.422;26.092;2023-01-23T07:01:11;2.60;99.90
10447;DHT22;5271;44.422;26.092;2023-01-23T07:03:40;2.70;99.90
10447;DHT22;5271;44.422;26.092;2023-01-23T07:06:09;2.60;99.90
10447;DHT22;5271;44.422;26.092;2023-01-23T07:08:37;2.70;99.90
10447;DHT22;5271;44.422;26.092;2023-01-23T07:11:04;2.70;99.90
10447;DHT22;5271;44.422;26.092;2023-01-23T07:13:32;2.70;99.90
10447;DHT22;5271;44.422;26.092;2023-01-23T07:16:00;2.70;99.90
10447;DHT22;5271;44.422;26.092;2023-01-23T07:18:27;2.70;99.90
10447;DHT22;5271;44.422;26.092;2023-01-23T07:20:54;2.70;99.90
10447;DHT22;5271;44.422;26.092;2023-01-23T07:23:22;2.70;99.90
10447;DHT22;5271;44.422;26.092;2023-01-23T07:25:49;2.70;99.90
10447;DHT22;5271;44.422;26.092;2023-01-23T07:28:16;2.70;99.90
10447;DHT22;5271;44.422;26.092;2023-01-23T07:30:43;2.70;99.90
10447;DHT22;5271;44.422;26.092;2023-01-23T07:33:11;2.70;99.90
10447;DHT22;5271;44.422;26.092;2023-01-23T07:35:38;2.80;99.90
10447;DHT22;5271;44.422;26.092;2023-01-23T07:38:05;2.70;99.90
10447;DHT22;5271;44.422;26.092;2023-01-23T07:40:32;2.70;99.90
10447;DHT22;5271;44.422;26.092;2023-01-23T07:42:59;2.70;99.90
10447;DHT22;5271;44.422;26.092;2023-01-23T07:45:26;2.70;99.90
10447;DHT22;5271;44.422;26.092;2023-01-23T07:47:53;2.70;99.90
10447;DHT22;5271;44.422;26.092;2023-01-23T07:50:21;2.80;99.90
10447;DHT22;5271;44.422;26.092;2023-01-23T07:52:48;2.80;99.90
10447;DHT22;5271;44.422;26.092;2023-01-23T07:55:15;2.80;99.90
10447;DHT22;5271;44.422;26.092;2023-01-23T07:57:43;2.80;99.90
10447;DHT22;5271;44.422;26.092;2023-01-23T08:00:10;2.80;99.90
10447;DHT22;5271;44.422;26.092;2023-01-23T08:02:37;2.90;99.90
10447;DHT22;5271;44.422;26.092;2023-01-23T08:05:05;2.90;99.90
10447;DHT22;5271;44.422;26.092;2023-01-23T08:07:33;2.90;99.90
10447;DHT22;5271;44.422;26.092;2023-01-23T08:10:00;2.90;99.90
10447;DHT22;5271;44.422;26.092;2023-01-23T08:12:27;3.00;99.90
10447;DHT22;5271;44.422;26.092;2023-01-23T08:14:54;3.00;99.90
10447;DHT22;5271;44.422;26.092;2023-01-23T08:17:20;3.00;99.90
10447;DHT22;5271;44.422;26.092;2023-01-23T08:19:48;3.10;99.90
10447;DHT22;5271;44.422;26.092;2023-01-23T08:22:15;3.10;99.90
10447;DHT22;5271;44.422;26.092;2023-01-23T08:24:43;3.10;99.90
10447;DHT22;5271;44.422;26.092;2023-01-23T08:27:10;3.10;99.90
10447;DHT22;5271;44.422;26.092;2023-01-23T08:29:37;3.10;99.90
10447;DHT22;5271;44.422;26.092;2023-01-23T08:32:04;3.10;99.90
10447;DHT22;5271;44.422;26.092;2023-01-23T08:34:31;3.10;99.90
10447;DHT22;5271;44.422;26.092;2023-01-23T08:36:58;3.20;99.90
10447;DHT22;5271;44.422;26.092;2023-01-23T08:39:25;3.30;99.90
10447;DHT22;5271;44.422;26.092;2023-01-23T08:41:54;3.30;99.90
10447;DHT22;5271;44.422;26.092;2023-01-23T08:44:20;3.30;99.90
10447;DHT22;5271;44.422;26.092;2023-01-23T08:46:47;3.30;99.90
10447;DHT22;5271;44.422;26.092;2023-01-23T08:49:14;3.30;99.90
10447;DHT22;5271;44.422;26.092;2023-01-23T08:51:44;3.30;99.90
10447;DHT22;5271;44.422;26.092;2023-01-23T08:54:10;3.30;99.90
10447;DHT22;5271;44.422;26.092;2023-01-23T08:56:37;3.30;99.90
10447;DHT22;5271;44.422;26.092;2023-01-23T08:59:07;3.30;99.90
10447;DHT22;5271;44.422;26.092;2023-01-23T09:01:34;3.30;99.90
10447;DHT22;5271;44.422;26.092;2023-01-23T09:04:01;3.30;99.90
10447;DHT22;5271;44.422;26.092;2023-01-23T09:06:27;3.30;99.90
10447;DHT22;5271;44.422;26.092;2023-01-23T09:08:56;3.30;99.90
10447;DHT22;5271;44.422;26.092;2023-01-23T09:11:23;3.30;99.90
10447;DHT22;5271;44.422;26.092;2023-01-23T09:13:50;3.30;99.90
10447;DHT22;5271;44.422;26.092;2023-01-23T09:16:18;3.30;99.90
10447;DHT22;5271;44.422;26.092;2023-01-23T09:18:45;3.30;99.80
10447;DHT22;5271;44.422;26.092;2023-01-23T09:21:14;3.40;99.90
10447;DHT22;5271;44.422;26.092;2023-01-23T09:23:42;3.40;99.70
10447;DHT22;5271;44.422;26.092;2023-01-23T09:26:10;3.40;99.70
10447;DHT22;5271;44.422;26.092;2023-01-23T09:28:39;3.40;99.50
10447;DHT22;5271;44.422;26.092;2023-01-23T09:31:09;3.40;99.50
10447;DHT22;5271;44.422;26.092;2023-01-23T09:33:37;3.40;99.50
10447;DHT22;5271;44.422;26.092;2023-01-23T09:36:06;3.40;99.40
10447;DHT22;5271;44.422;26.092;2023-01-23T09:38:33;3.40;99.40
10447;DHT22;5271;44.422;26.092;2023-01-23T09:41:08;3.40;99.40
10447;DHT22;5271;44.422;26.092;2023-01-23T09:43:40;3.40;99.20
10447;DHT22;5271;44.422;26.092;2023-01-23T09:46:16;3.50;99.20
10447;DHT22;5271;44.422;26.092;2023-01-23T09:48:47;3.50;99.10
10447;DHT22;5271;44.422;26.092;2023-01-23T09:51:21;3.50;98.90
10447;DHT22;5271;44.422;26.092;2023-01-23T09:53:51;3.50;98.70
10447;DHT22;5271;44.422;26.092;2023-01-23T09:56:28;3.50;98.60
10447;DHT22;5271;44.422;26.092;2023-01-23T09:59:02;3.50;98.80
10447;DHT22;5271;44.422;26.092;2023-01-23T10:01:33;3.50;98.50
10447;DHT22;5271;44.422;26.092;2023-01-23T10:04:02;3.50;98.60
10447;DHT22;5271;44.422;26.092;2023-01-23T10:06:30;3.50;98.60
10447;DHT22;5271;44.422;26.092;2023-01-23T10:09:19;3.60;98.60
10447;DHT22;5271;44.422;26.092;2023-01-23T10:11:57;3.60;98.40
10447;DHT22;5271;44.422;26.092;2023-01-23T10:14:43;3.70;98.10
10447;DHT22;5271;44.422;26.092;2023-01-23T10:17:18;3.70;98.00
10447;DHT22;5271;44.422;26.092;2023-01-23T10:20:02;3.70;97.70
10447;DHT22;5271;44.422;26.092;2023-01-23T10:22:40;3.70;97.70
10447;DHT22;5271;44.422;26.092;2023-01-23T10:25:13;3.70;97.70
10447;DHT22;5271;44.422;26.092;2023-01-23T10:27:45;3.80;97.70
10447;DHT22;5271;44.422;26.092;2023-01-23T10:30:22;3.80;97.80
10447;DHT22;5271;44.422;26.092;2023-01-23T10:32:55;3.80;97.50
10447;DHT22;5271;44.422;26.092;2023-01-23T10:35:28;3.70;97.40
10447;DHT22;5271;44.422;26.092;2023-01-23T10:38:01;3.80;97.50
10447;DHT22;5271;44.422;26.092;2023-01-23T10:40:30;3.80;97.60
10447;DHT22;5271;44.422;26.092;2023-01-23T10:43:17;3.80;97.30
10447;DHT22;5271;44.422;26.092;2023-01-23T10:45:45;3.80;97.30
10447;DHT22;5271;44.422;26.092;2023-01-23T10:48:37;3.80;97.30
10447;DHT22;5271;44.422;26.092;2023-01-23T10:54:15;3.70;97.00
10447;DHT22;5271;44.422;26.092;2023-01-23T10:56:54;3.70;97.40
10447;DHT22;5271;44.422;26.092;2023-01-23T10:59:28;3.70;96.90
10447;DHT22;5271;44.422;26.092;2023-01-23T11:01:59;3.70;96.90
10447;DHT22;5271;44.422;26.092;2023-01-23T11:04:28;3.80;96.90
10447;DHT22;5271;44.422;26.092;2023-01-23T11:07:04;3.80;96.60
10447;DHT22;5271;44.422;26.092;2023-01-23T11:09:48;3.80;96.50
10447;DHT22;5271;44.422;26.092;2023-01-23T11:12:17;3.70;96.20
10447;DHT22;5271;44.422;26.092;2023-01-23T11:14:45;3.70;96.10
10447;DHT22;5271;44.422;26.092;2023-01-23T11:17:16;3.70;96.20
10447;DHT22;5271;44.422;26.092;2023-01-23T11:19:45;3.70;96.40
10447;DHT22;5271;44.422;26.092;2023-01-23T11:22:28;3.80;96.10
10447;DHT22;5271;44.422;26.092;2023-01-23T11:24:58;3.80;96.10
10447;DHT22;5271;44.422;26.092;2023-01-23T11:27:26;3.80;95.90
10447;DHT22;5271;44.422;26.092;2023-01-23T11:30:24;3.80;95.80
10447;DHT22;5271;44.422;26.092;2023-01-23T11:32:56;3.90;95.40
10447;DHT22;5271;44.422;26.092;2023-01-23T11:35:33;3.80;95.20
10447;DHT22;5271;44.422;26.092;2023-01-23T11:38:05;3.80;95.20
10447;DHT22;5271;44.422;26.092;2023-01-23T11:40:37;3.80;95.10
10447;DHT22;5271;44.422;26.092;2023-01-23T11:43:09;3.90;95.30
10447;DHT22;5271;44.422;26.092;2023-01-23T11:45:47;3.90;95.00
10447;DHT22;5271;44.422;26.092;2023-01-23T11:48:41;3.90;95.10
10447;DHT22;5271;44.422;26.092;2023-01-23T11:51:17;3.90;94.70
10447;DHT22;5271;44.422;26.092;2023-01-23T11:53:52;3.90;94.60
10447;DHT22;5271;44.422;26.092;2023-01-23T11:56:52;3.90;94.80
10447;DHT22;5271;44.422;26.092;2023-01-23T11:59:41;3.80;94.40
10447;DHT22;5271;44.422;26.092;2023-01-23T12:02:37;3.80;94.30
10447;DHT22;5271;44.422;26.092;2023-01-23T12:05:19;3.80;94.20
10447;DHT22;5271;44.422;26.092;2023-01-23T12:07:54;3.80;94.30
10447;DHT22;5271;44.422;26.092;2023-01-23T12:10:27;3.80;94.50
10447;DHT22;5271;44.422;26.092;2023-01-23T12:13:12;3.80;94.40
10447;DHT22;5271;44.422;26.092;2023-01-23T12:15:45;3.80;94.30
10447;DHT22;5271;44.422;26.092;2023-01-23T12:18:24;3.80;94.40
10447;DHT22;5271;44.422;26.092;2023-01-23T12:21:02;3.80;94.60
10447;DHT22;5271;44.422;26.092;2023-01-23T12:23:42;3.90;94.60
10447;DHT22;5271;44.422;26.092;2023-01-23T12:26:15;3.90;94.50
10447;DHT22;5271;44.422;26.092;2023-01-23T12:29:05;3.90;94.70
10447;DHT22;5271;44.422;26.092;2023-01-23T12:31:47;3.90;94.60
10447;DHT22;5271;44.422;26.092;2023-01-23T12:34:29;3.90;94.60
10447;DHT22;5271;44.422;26.092;2023-01-23T12:37:12;3.90;94.60
10447;DHT22;5271;44.422;26.092;2023-01-23T12:40:01;3.90;94.70
10447;DHT22;5271;44.422;26.092;2023-01-23T12:42:37;3.90;94.90
10447;DHT22;5271;44.422;26.092;2023-01-23T12:45:15;3.90;94.90
10447;DHT22;5271;44.422;26.092;2023-01-23T12:47:49;3.90;94.80
10447;DHT22;5271;44.422;26.092;2023-01-23T12:50:20;3.90;94.80
10447;DHT22;5271;44.422;26.092;2023-01-23T12:52:52;4.00;94.60
10447;DHT22;5271;44.422;26.092;2023-01-23T12:55:24;4.00;94.70
10447;DHT22;5271;44.422;26.092;2023-01-23T12:57:54;4.00;94.60
10447;DHT22;5271;44.422;26.092;2023-01-23T13:00:33;3.90;94.80
10447;DHT22;5271;44.422;26.092;2023-01-23T13:03:12;4.00;94.70
10447;DHT22;5271;44.422;26.092;2023-01-23T13:05:52;4.10;94.70
10447;DHT22;5271;44.422;26.092;2023-01-23T13:08:26;4.00;94.40
10447;DHT22;5271;44.422;26.092;2023-01-23T13:11:03;4.10;94.60
10447;DHT22;5271;44.422;26.092;2023-01-23T13:13:49;4.10;94.30
10447;DHT22;5271;44.422;26.092;2023-01-23T13:16:18;4.00;94.30
10447;DHT22;5271;44.422;26.092;2023-01-23T13:18:52;4.00;94.40
10447;DHT22;5271;44.422;26.092;2023-01-23T13:21:37;4.00;94.50
10447;DHT22;5271;44.422;26.092;2023-01-23T13:24:46;4.10;94.50
10447;DHT22;5271;44.422;26.092;2023-01-23T13:27:40;4.00;94.50
10447;DHT22;5271;44.422;26.092;2023-01-23T13:30:39;4.00;94.70
10447;DHT22;5271;44.422;26.092;2023-01-23T13:36:29;4.00;94.40
10447;DHT22;5271;44.422;26.092;2023-01-23T13:39:21;4.00;94.30
10447;DHT22;5271;44.422;26.092;2023-01-23T13:44:31;4.10;94.20
10447;DHT22;5271;44.422;26.092;2023-01-23T13:47:14;4.10;94.30
10447;DHT22;5271;44.422;26.092;2023-01-23T13:50:06;4.10;93.90
10447;DHT22;5271;44.422;26.092;2023-01-23T13:52:38;4.00;93.80
10447;DHT22;5271;44.422;26.092;2023-01-23T13:55:26;4.00;94.10
10447;DHT22;5271;44.422;26.092;2023-01-23T13:58:13;4.00;94.10
10447;DHT22;5271;44.422;26.092;2023-01-23T14:00:47;4.00;94.20
10447;DHT22;5271;44.422;26.092;2023-01-23T14:03:36;4.00;94.10
10447;DHT22;5271;44.422;26.092;2023-01-23T14:06:30;4.00;94.00
10447;DHT22;5271;44.422;26.092;2023-01-23T14:08:59;4.00;94.00
10447;DHT22;5271;44.422;26.092;2023-01-23T14:11:33;4.00;94.20
10447;DHT22;5271;44.422;26.092;2023-01-23T14:14:02;4.10;94.00
10447;DHT22;5271;44.422;26.092;2023-01-23T14:16:47;4.10;93.90
10447;DHT22;5271;44.422;26.092;2023-01-23T14:19:22;4.10;93.80
10447;DHT22;5271;44.422;26.092;2023-01-23T14:21:53;4.10;93.70
10447;DHT22;5271;44.422;26.092;2023-01-23T14:24:24;4.10;93.50
10447;DHT22;5271;44.422;26.092;2023-01-23T14:26:59;4.10;93.50
10447;DHT22;5271;44.422;26.092;2023-01-23T14:29:27;4.10;93.60
10447;DHT22;5271;44.422;26.092;2023-01-23T14:31:53;4.10;93.30
10447;DHT22;5271;44.422;26.092;2023-01-23T14:34:22;4.10;93.40
10447;DHT22;5271;44.422;26.092;2023-01-23T14:36:53;4.10;93.40
10447;DHT22;5271;44.422;26.092;2023-01-23T14:39:26;4.10;93.40
10447;DHT22;5271;44.422;26.092;2023-01-23T14:41:55;4.10;93.30
10447;DHT22;5271;44.422;26.092;2023-01-23T14:44:26;4.10;93.30
10447;DHT22;5271;44.422;26.092;2023-01-23T14:46:55;4.00;93.20
10447;DHT22;5271;44.422;26.092;2023-01-23T14:49:26;4.10;93.40
10447;DHT22;5271;44.422;26.092;2023-01-23T14:51:59;4.10;93.40
10447;DHT22;5271;44.422;26.092;2023-01-23T14:54:27;4.10;93.40
10447;DHT22;5271;44.422;26.092;2023-01-23T14:56:54;4.10;93.40
10447;DHT22;5271;44.422;26.092;2023-01-23T14:59:25;4.20;93.30
10447;DHT22;5271;44.422;26.092;2023-01-23T15:01:55;4.10;93.10
10447;DHT22;5271;44.422;26.092;2023-01-23T15:04:23;4.10;93.10
10447;DHT22;5271;44.422;26.092;2023-01-23T15:06:52;4.10;93.10
10447;DHT22;5271;44.422;26.092;2023-01-23T15:09:23;4.10;93.10
10447;DHT22;5271;44.422;26.092;2023-01-23T15:11:53;4.10;93.00
10447;DHT22;5271;44.422;26.092;2023-01-23T15:14:23;4.10;92.90
10447;DHT22;5271;44.422;26.092;2023-01-23T15:16:58;4.00;92.90
10447;DHT22;5271;44.422;26.092;2023-01-23T15:19:25;4.00;93.10
10447;DHT22;5271;44.422;26.092;2023-01-23T15:22:05;4.00;93.20
10447;DHT22;5271;44.422;26.092;2023-01-23T15:24:32;4.00;93.10
10447;DHT22;5271;44.422;26.092;2023-01-23T15:27:03;4.00;93.30
10447;DHT22;5271;44.422;26.092;2023-01-23T15:29:31;4.10;93.20
10447;DHT22;5271;44.422;26.092;2023-01-23T15:31:59;4.10;93.10
10447;DHT22;5271;44.422;26.092;2023-01-23T15:34:29;4.10;93.10
10447;DHT22;5271;44.422;26.092;2023-01-23T15:37:00;4.10;93.00
10447;DHT22;5271;44.422;26.092;2023-01-23T15:39:31;4.10;93.30
10447;DHT22;5271;44.422;26.092;2023-01-23T15:42:02;4.00;93.10
10447;DHT22;5271;44.422;26.092;2023-01-23T15:44:31;4.00;93.30
10447;DHT22;5271;44.422;26.092;2023-01-23T15:46:58;4.00;93.40
10447;DHT22;5271;44.422;26.092;2023-01-23T15:49:28;4.10;93.30
10447;DHT22;5271;44.422;26.092;2023-01-23T15:51:56;4.10;93.30
10447;DHT22;5271;44.422;26.092;2023-01-23T15:54:27;4.10;93.30
10447;DHT22;5271;44.422;26.092;2023-01-23T15:56:56;4.10;93.30
10447;DHT22;5271;44.422;26.092;2023-01-23T15:59:26;4.10;93.20
10447;DHT22;5271;44.422;26.092;2023-01-23T16:01:53;4.00;93.40
10447;DHT22;5271;44.422;26.092;2023-01-23T16:04:20;4.10;93.30
10447;DHT22;5271;44.422;26.092;2023-01-23T16:06:47;4.00;93.30
10447;DHT22;5271;44.422;26.092;2023-01-23T16:09:20;4.00;93.30
10447;DHT22;5271;44.422;26.092;2023-01-23T16:11:49;4.10;93.40
10447;DHT22;5271;44.422;26.092;2023-01-23T16:14:16;4.10;93.40
10447;DHT22;5271;44.422;26.092;2023-01-23T16:16:45;4.10;93.40